Airfield :







YOU CAN JOIN US ON...

 
LOGIN :

Register | Disclaimer

   EN    FR    IT 

 









Legend :    VFR   Marginal VFR   IFR   Intensive IFR   Very Intensive IFR
Visi :
Ceiling :
>= 8 km
>= 3000ft
5 to 8 km
1000 to 3000 ft
1500m to 5 km
500 to 1000 ft
800 to 1500m
200 to 500 ft
< 800m
< 200 ft
Symbols :   Thunderstorms  Fog  Heavy snow  Heavy precipitations  Wind > 20 kt







- Airport Elevation : 477 ft
- IATA code : YHZ


CYHZ - Halifax Stanfield Int.

CURRENT METAR :
  • 211000Z 20007KT 15SM FEW230 M04/M08 A3031 RMK CI1 SLP273

EXPIRED METARs :
  • 210900Z 21006KT 15SM FEW230 M05/M09 A3032 RMK CI1 SLP275
  • 210800Z 22005KT 15SM FEW230 M04/M10 A3032 RMK CI1 SLP274

TAF TAF CYHZ
Valid from the 21 at 09:00 until the 22 at 06:00 UTC


210838Z 2109/2206 22005KT P6SM SKC
FM211500 19008G18KT P6SM FEW030
BECMG 2121/2123 17008KT
FM220300 14010KT P6SM BKN008 BKN020
PROB30 2203/2206 2SM -FZDZ BR RMK NXT FCST BY 211200Z
CZQM FIR / North America



MET'MAP, your aeronautical weather chart ! - Copyright ORBIFLY December 2007 - Disclaimer

ORBIFLY MET'MAP TEAM :

Programming & Development : Alexandra Zaïnal
Concept & Development : Baudouin d'Aumeries
Co-Development & Prog : Marc-Olivier Méhu
Technical & hardware support : Manuel Goepfert

Contact : metmap@orbifly.com




SOURCES & CREDITS :

   NOAA